sensor_id;sensor_type;location;lat;lon;timestamp;pressure;altitude;pressure_sealevel;temperature;humidity
56681;BME280;42558;52.388;13.390;2024-03-23T00:52:48;100453.07;;;6.72;96.56
56681;BME280;42558;52.388;13.390;2024-03-23T00:55:16;100445.52;;;6.72;96.41
56681;BME280;42558;52.388;13.390;2024-03-23T00:57:45;100454.39;;;6.80;96.61
56681;BME280;42558;52.388;13.390;2024-03-23T01:00:15;100452.94;;;6.81;96.60
56681;BME280;42558;52.388;13.390;2024-03-23T01:02:44;100446.27;;;6.81;97.08
56681;BME280;42558;52.388;13.390;2024-03-23T01:05:13;100444.66;;;6.79;97.16
56681;BME280;42558;52.388;13.390;2024-03-23T01:07:42;100445.34;;;6.81;97.41
56681;BME280;42558;52.388;13.390;2024-03-23T01:10:11;100440.36;;;6.82;97.40
56681;BME280;42558;52.388;13.390;2024-03-23T01:12:40;100437.11;;;6.82;97.14
56681;BME280;42558;52.388;13.390;2024-03-23T01:15:09;100428.15;;;6.83;97.05
56681;BME280;42558;52.388;13.390;2024-03-23T01:17:38;100433.79;;;6.82;97.21
56681;BME280;42558;52.388;13.390;2024-03-23T01:20:09;100435.26;;;6.82;97.54
56681;BME280;42558;52.388;13.390;2024-03-23T01:22:37;100434.09;;;6.85;97.64
56681;BME280;42558;52.388;13.390;2024-03-23T01:25:06;100428.60;;;6.84;97.86
56681;BME280;42558;52.388;13.390;2024-03-23T01:27:35;100424.32;;;6.85;98.10
56681;BME280;42558;52.388;13.390;2024-03-23T01:30:04;100409.59;;;6.83;98.01
56681;BME280;42558;52.388;13.390;2024-03-23T01:32:31;100397.83;;;6.84;98.44
56681;BME280;42558;52.388;13.390;2024-03-23T01:34:59;100394.05;;;6.82;98.46
56681;BME280;42558;52.388;13.390;2024-03-23T01:37:28;100386.87;;;6.81;98.55
56681;BME280;42558;52.388;13.390;2024-03-23T01:39:57;100383.58;;;6.82;98.75
56681;BME280;42558;52.388;13.390;2024-03-23T01:42:26;100372.05;;;6.81;98.84
56681;BME280;42558;52.388;13.390;2024-03-23T01:44:54;100372.95;;;6.80;98.83
56681;BME280;42558;52.388;13.390;2024-03-23T01:47:21;100367.52;;;6.78;98.70
56681;BME280;42558;52.388;13.390;2024-03-23T01:49:50;100367.25;;;6.78;98.83
56681;BME280;42558;52.388;13.390;2024-03-23T01:52:19;100374.48;;;6.79;98.60
56681;BME280;42558;52.388;13.390;2024-03-23T01:54:48;100377.48;;;6.80;98.53
56681;BME280;42558;52.388;13.390;2024-03-23T01:57:15;100378.02;;;6.80;98.49
56681;BME280;42558;52.388;13.390;2024-03-23T01:59:44;100381.36;;;6.83;98.75
56681;BME280;42558;52.388;13.390;2024-03-23T02:02:11;100378.90;;;6.82;98.54
56681;BME280;42558;52.388;13.390;2024-03-23T02:04:37;100378.87;;;6.79;98.55
56681;BME280;42558;52.388;13.390;2024-03-23T02:07:08;100373.73;;;6.79;98.78
56681;BME280;42558;52.388;13.390;2024-03-23T02:09:37;100380.98;;;6.77;98.87
56681;BME280;42558;52.388;13.390;2024-03-23T02:12:07;100378.37;;;6.78;98.78
56681;BME280;42558;52.388;13.390;2024-03-23T02:14:36;100373.04;;;6.76;98.93
56681;BME280;42558;52.388;13.390;2024-03-23T02:17:05;100366.61;;;6.74;98.84
56681;BME280;42558;52.388;13.390;2024-03-23T02:19:34;100361.38;;;6.66;99.07
56681;BME280;42558;52.388;13.390;2024-03-23T02:22:02;100358.52;;;6.67;99.36
56681;BME280;42558;52.388;13.390;2024-03-23T02:24:31;100360.21;;;6.68;99.32
56681;BME280;42558;52.388;13.390;2024-03-23T02:27:03;100356.92;;;6.71;99.42
56681;BME280;42558;52.388;13.390;2024-03-23T02:29:31;100354.11;;;6.71;99.41
56681;BME280;42558;52.388;13.390;2024-03-23T02:32:00;100343.79;;;6.65;99.77
56681;BME280;42558;52.388;13.390;2024-03-23T02:34:30;100341.03;;;6.61;99.90
56681;BME280;42558;52.388;13.390;2024-03-23T02:36:59;100338.89;;;6.59;99.80
56681;BME280;42558;52.388;13.390;2024-03-23T02:39:28;100338.19;;;6.59;99.97
56681;BME280;42558;52.388;13.390;2024-03-23T02:41:57;100338.33;;;6.56;99.93
56681;BME280;42558;52.388;13.390;2024-03-23T02:44:26;100326.69;;;6.59;100.00
56681;BME280;42558;52.388;13.390;2024-03-23T02:46:54;100328.05;;;6.60;99.98
56681;BME280;42558;52.388;13.390;2024-03-23T02:49:23;100316.14;;;6.57;100.00
56681;BME280;42558;52.388;13.390;2024-03-23T02:51:52;100306.98;;;6.59;99.96
56681;BME280;42558;52.388;13.390;2024-03-23T02:54:21;100300.16;;;6.60;99.96
56681;BME280;42558;52.388;13.390;2024-03-23T02:56:51;100301.79;;;6.54;99.87
56681;BME280;42558;52.388;13.390;2024-03-23T02:59:19;100306.13;;;6.54;99.90
56681;BME280;42558;52.388;13.390;2024-03-23T03:01:48;100301.81;;;6.56;99.95
56681;BME280;42558;52.388;13.390;2024-03-23T03:04:17;100307.37;;;6.59;99.89
56681;BME280;42558;52.388;13.390;2024-03-23T03:06:47;100304.14;;;6.56;99.77
56681;BME280;42558;52.388;13.390;2024-03-23T03:09:17;100302.73;;;6.56;99.91
56681;BME280;42558;52.388;13.390;2024-03-23T03:11:46;100305.14;;;6.58;99.98
56681;BME280;42558;52.388;13.390;2024-03-23T03:14:15;100303.95;;;6.59;99.80
56681;BME280;42558;52.388;13.390;2024-03-23T03:16:44;100298.73;;;6.59;99.79
56681;BME280;42558;52.388;13.390;2024-03-23T03:19:13;100292.98;;;6.59;99.99
56681;BME280;42558;52.388;13.390;2024-03-23T03:21:42;100279.85;;;6.59;99.90
56681;BME280;42558;52.388;13.390;2024-03-23T03:24:11;100277.68;;;6.59;99.96
56681;BME280;42558;52.388;13.390;2024-03-23T03:26:40;100277.79;;;6.59;99.95
56681;BME280;42558;52.388;13.390;2024-03-23T03:29:09;100274.70;;;6.59;100.00
56681;BME280;42558;52.388;13.390;2024-03-23T03:31:39;100272.73;;;6.57;99.98
56681;BME280;42558;52.388;13.390;2024-03-23T03:34:08;100270.40;;;6.57;99.98
56681;BME280;42558;52.388;13.390;2024-03-23T03:36:37;100263.66;;;6.56;99.94
56681;BME280;42558;52.388;13.390;2024-03-23T03:39:06;100262.79;;;6.56;100.00
56681;BME280;42558;52.388;13.390;2024-03-23T03:41:35;100260.04;;;6.58;100.00
56681;BME280;42558;52.388;13.390;2024-03-23T03:44:04;100261.09;;;6.60;100.00
56681;BME280;42558;52.388;13.390;2024-03-23T03:46:31;100267.17;;;6.61;99.99
56681;BME280;42558;52.388;13.390;2024-03-23T03:49:00;100273.89;;;6.59;100.00
56681;BME280;42558;52.388;13.390;2024-03-23T03:51:29;100267.85;;;6.58;100.00
56681;BME280;42558;52.388;13.390;2024-03-23T03:53:58;100259.94;;;6.58;100.00
56681;BME280;42558;52.388;13.390;2024-03-23T03:56:27;100259.14;;;6.53;100.00
56681;BME280;42558;52.388;13.390;2024-03-23T03:58:56;100263.80;;;6.52;100.00
56681;BME280;42558;52.388;13.390;2024-03-23T04:01:25;100263.95;;;6.46;100.00
56681;BME280;42558;52.388;13.390;2024-03-23T04:03:54;100254.35;;;6.46;100.00
56681;BME280;42558;52.388;13.390;2024-03-23T04:06:23;100248.02;;;6.37;100.00
56681;BME280;42558;52.388;13.390;2024-03-23T04:08:52;100243.86;;;6.31;100.00
56681;BME280;42558;52.388;13.390;2024-03-23T04:11:21;100239.02;;;6.32;100.00
56681;BME280;42558;52.388;13.390;2024-03-23T04:13:50;100239.71;;;6.30;100.00
56681;BME280;42558;52.388;13.390;2024-03-23T04:16:29;100238.67;;;6.28;99.97
56681;BME280;42558;52.388;13.390;2024-03-23T04:18:59;100238.84;;;6.20;100.00
56681;BME280;42558;52.388;13.390;2024-03-23T04:21:28;100235.92;;;6.15;100.00
56681;BME280;42558;52.388;13.390;2024-03-23T04:23:57;100233.39;;;6.12;100.00
56681;BME280;42558;52.388;13.390;2024-03-23T04:26:25;100236.98;;;6.14;100.00
56681;BME280;42558;52.388;13.390;2024-03-23T04:28:54;100237.30;;;6.07;99.97
56681;BME280;42558;52.388;13.390;2024-03-23T04:31:23;100243.70;;;6.07;100.00
56681;BME280;42558;52.388;13.390;2024-03-23T04:33:52;100244.93;;;6.00;100.00
56681;BME280;42558;52.388;13.390;2024-03-23T04:36:21;100238.66;;;5.98;100.00
56681;BME280;42558;52.388;13.390;2024-03-23T04:38:50;100235.73;;;5.98;100.00
56681;BME280;42558;52.388;13.390;2024-03-23T04:41:21;100227.67;;;5.85;99.98
56681;BME280;42558;52.388;13.390;2024-03-23T04:43:50;100222.60;;;5.78;99.90
56681;BME280;42558;52.388;13.390;2024-03-23T04:46:19;100222.38;;;5.73;99.79
56681;BME280;42558;52.388;13.390;2024-03-23T04:48:49;100218.99;;;5.76;99.78
56681;BME280;42558;52.388;13.390;2024-03-23T04:51:23;100214.15;;;5.74;99.63
56681;BME280;42558;52.388;13.390;2024-03-23T04:53:52;100206.80;;;5.76;99.79
56681;BME280;42558;52.388;13.390;2024-03-23T04:56:21;100202.62;;;5.70;99.58
56681;BME280;42558;52.388;13.390;2024-03-23T04:58:50;100201.30;;;5.68;99.83
56681;BME280;42558;52.388;13.390;2024-03-23T05:01:19;100200.95;;;5.66;99.86
56681;BME280;42558;52.388;13.390;2024-03-23T05:03:48;100197.96;;;5.71;100.00
56681;BME280;42558;52.388;13.390;2024-03-23T05:06:18;100194.69;;;5.73;99.87
56681;BME280;42558;52.388;13.390;2024-03-23T05:08:47;100191.16;;;5.68;99.91
56681;BME280;42558;52.388;13.390;2024-03-23T05:11:17;100196.41;;;5.66;99.96
56681;BME280;42558;52.388;13.390;2024-03-23T05:13:46;100196.85;;;5.58;99.98
56681;BME280;42558;52.388;13.390;2024-03-23T05:16:15;100197.63;;;5.54;100.00
56681;BME280;42558;52.388;13.390;2024-03-23T05:18:44;100193.94;;;5.54;100.00
56681;BME280;42558;52.388;13.390;2024-03-23T05:21:13;100196.33;;;5.50;100.00
56681;BME280;42558;52.388;13.390;2024-03-23T05:23:42;100193.08;;;5.50;100.00
56681;BME280;42558;52.388;13.390;2024-03-23T05:26:12;100185.69;;;5.49;100.00
56681;BME280;42558;52.388;13.390;2024-03-23T05:28:41;100181.56;;;5.48;100.00
56681;BME280;42558;52.388;13.390;2024-03-23T05:31:09;100173.07;;;5.44;100.00
56681;BME280;42558;52.388;13.390;2024-03-23T05:33:39;100172.90;;;5.43;100.00
56681;BME280;42558;52.388;13.390;2024-03-23T05:36:08;100174.33;;;5.45;100.00
56681;BME280;42558;52.388;13.390;2024-03-23T05:38:40;100169.53;;;5.47;100.00
56681;BME280;42558;52.388;13.390;2024-03-23T05:41:09;100154.19;;;5.46;100.00
56681;BME280;42558;52.388;13.390;2024-03-23T05:43:38;100149.27;;;5.48;100.00
56681;BME280;42558;52.388;13.390;2024-03-23T05:46:08;100146.13;;;5.51;100.00
56681;BME280;42558;52.388;13.390;2024-03-23T05:48:37;100141.60;;;5.54;100.00
56681;BME280;42558;52.388;13.390;2024-03-23T05:51:06;100139.27;;;5.59;100.00
56681;BME280;42558;52.388;13.390;2024-03-23T05:53:36;100145.00;;;5.58;100.00
56681;BME280;42558;52.388;13.390;2024-03-23T05:56:05;100142.63;;;5.58;100.00
56681;BME280;42558;52.388;13.390;2024-03-23T05:58:34;100137.51;;;5.61;100.00
56681;BME280;42558;52.388;13.390;2024-03-23T06:01:03;100130.48;;;5.63;99.97
56681;BME280;42558;52.388;13.390;2024-03-23T06:03:33;100122.28;;;5.66;100.00
56681;BME280;42558;52.388;13.390;2024-03-23T06:06:04;100112.29;;;5.69;99.92
56681;BME280;42558;52.388;13.390;2024-03-23T06:08:31;100105.33;;;5.73;99.87
56681;BME280;42558;52.388;13.390;2024-03-23T06:11:00;100100.33;;;5.77;99.90
56681;BME280;42558;52.388;13.390;2024-03-23T06:13:29;100091.58;;;5.80;99.99
56681;BME280;42558;52.388;13.390;2024-03-23T06:15:58;100089.60;;;5.83;100.00
56681;BME280;42558;52.388;13.390;2024-03-23T06:18:28;100084.95;;;5.84;99.94
56681;BME280;42558;52.388;13.390;2024-03-23T06:20:57;100077.19;;;5.83;99.84
56681;BME280;42558;52.388;13.390;2024-03-23T06:23:26;100080.67;;;5.85;99.96
56681;BME280;42558;52.388;13.390;2024-03-23T06:25:55;100085.88;;;5.85;100.00
56681;BME280;42558;52.388;13.390;2024-03-23T06:28:24;100089.98;;;5.89;100.00
56681;BME280;42558;52.388;13.390;2024-03-23T06:30:53;100086.09;;;5.95;100.00
56681;BME280;42558;52.388;13.390;2024-03-23T06:33:22;100083.39;;;5.96;99.92
56681;BME280;42558;52.388;13.390;2024-03-23T06:35:52;100073.81;;;5.97;99.80
56681;BME280;42558;52.388;13.390;2024-03-23T06:38:21;100064.91;;;5.96;99.93
56681;BME280;42558;52.388;13.390;2024-03-23T06:40:50;100059.88;;;5.97;99.98
56681;BME280;42558;52.388;13.390;2024-03-23T06:43:21;100066.77;;;6.03;99.99
56681;BME280;42558;52.388;13.390;2024-03-23T06:45:54;100070.87;;;5.96;99.53
56681;BME280;42558;52.388;13.390;2024-03-23T06:48:23;100075.23;;;5.93;99.24
56681;BME280;42558;52.388;13.390;2024-03-23T06:50:56;100072.71;;;5.85;98.80
56681;BME280;42558;52.388;13.390;2024-03-23T06:53:23;100070.35;;;5.87;98.83
56681;BME280;42558;52.388;13.390;2024-03-23T06:55:53;100063.73;;;5.82;98.05
56681;BME280;42558;52.388;13.390;2024-03-23T06:58:22;100065.30;;;5.81;98.30
56681;BME280;42558;52.388;13.390;2024-03-23T07:00:48;100057.56;;;5.77;97.92
56681;BME280;42558;52.388;13.390;2024-03-23T07:03:17;100057.17;;;5.81;97.88
56681;BME280;42558;52.388;13.390;2024-03-23T07:05:45;100051.34;;;5.84;97.77
56681;BME280;42558;52.388;13.390;2024-03-23T07:08:13;100051.16;;;5.76;97.32
56681;BME280;42558;52.388;13.390;2024-03-23T07:10:45;100050.29;;;5.75;97.16
56681;BME280;42558;52.388;13.390;2024-03-23T07:13:13;100051.08;;;5.84;97.50
56681;BME280;42558;52.388;13.390;2024-03-23T07:15:42;100053.92;;;5.87;97.67
56681;BME280;42558;52.388;13.390;2024-03-23T07:18:10;100053.69;;;5.86;97.47
56681;BME280;42558;52.388;13.390;2024-03-23T07:20:37;100049.08;;;5.79;97.57
56681;BME280;42558;52.388;13.390;2024-03-23T07:23:06;100048.67;;;5.76;96.99
56681;BME280;42558;52.388;13.390;2024-03-23T07:25:34;100048.96;;;5.78;97.21
56681;BME280;42558;52.388;13.390;2024-03-23T07:28:03;100045.13;;;5.74;96.75
56681;BME280;42558;52.388;13.390;2024-03-23T07:30:31;100042.23;;;5.70;97.15
56681;BME280;42558;52.388;13.390;2024-03-23T07:32:59;100045.60;;;5.79;98.02
56681;BME280;42558;52.388;13.390;2024-03-23T07:35:28;100045.80;;;5.82;97.76
56681;BME280;42558;52.388;13.390;2024-03-23T07:37:56;100043.77;;;5.84;97.84
56681;BME280;42558;52.388;13.390;2024-03-23T07:40:25;100040.21;;;5.81;98.06
56681;BME280;42558;52.388;13.390;2024-03-23T07:42:53;100040.94;;;5.84;98.05
56681;BME280;42558;52.388;13.390;2024-03-23T07:45:21;100040.04;;;5.80;97.54
56681;BME280;42558;52.388;13.390;2024-03-23T07:47:50;100042.25;;;5.85;97.52
56681;BME280;42558;52.388;13.390;2024-03-23T07:50:18;100042.59;;;5.87;96.90
56681;BME280;42558;52.388;13.390;2024-03-23T07:52:47;100037.91;;;5.78;96.23
56681;BME280;42558;52.388;13.390;2024-03-23T07:55:15;100036.25;;;5.73;96.53
56681;BME280;42558;52.388;13.390;2024-03-23T07:57:43;100031.86;;;5.75;95.91
56681;BME280;42558;52.388;13.390;2024-03-23T08:00:16;100027.79;;;5.68;95.76
56681;BME280;42558;52.388;13.390;2024-03-23T08:02:45;100029.56;;;5.79;96.72
56681;BME280;42558;52.388;13.390;2024-03-23T08:05:14;100026.45;;;5.77;96.91
56681;BME280;42558;52.388;13.390;2024-03-23T08:07:43;100018.44;;;5.83;97.15
56681;BME280;42558;52.388;13.390;2024-03-23T08:10:12;100016.98;;;5.78;96.88
56681;BME280;42558;52.388;13.390;2024-03-23T08:12:41;100010.44;;;5.66;95.97
56681;BME280;42558;52.388;13.390;2024-03-23T08:15:10;100001.23;;;5.67;96.09
56681;BME280;42558;52.388;13.390;2024-03-23T08:17:39;100001.67;;;5.67;96.01
56681;BME280;42558;52.388;13.390;2024-03-23T08:20:18;100002.13;;;5.57;96.33
56681;BME280;42558;52.388;13.390;2024-03-23T08:22:47;100002.69;;;5.52;96.13
56681;BME280;42558;52.388;13.390;2024-03-23T08:25:16;99999.07;;;5.47;95.72
56681;BME280;42558;52.388;13.390;2024-03-23T08:27:45;99998.61;;;5.56;95.81
56681;BME280;42558;52.388;13.390;2024-03-23T08:30:14;99998.67;;;5.51;95.76
56681;BME280;42558;52.388;13.390;2024-03-23T08:32:43;99997.32;;;5.58;96.08
56681;BME280;42558;52.388;13.390;2024-03-23T08:35:12;100003.17;;;5.57;95.93
56681;BME280;42558;52.388;13.390;2024-03-23T08:37:41;100001.42;;;5.51;95.62
56681;BME280;42558;52.388;13.390;2024-03-23T08:40:11;99994.55;;;5.51;95.84
56681;BME280;42558;52.388;13.390;2024-03-23T08:42:40;99996.08;;;5.60;96.57
56681;BME280;42558;52.388;13.390;2024-03-23T08:45:09;99994.95;;;5.60;97.33
56681;BME280;42558;52.388;13.390;2024-03-23T08:47:38;99995.67;;;5.69;98.13
56681;BME280;42558;52.388;13.390;2024-03-23T08:50:08;99994.18;;;5.58;97.31
56681;BME280;42558;52.388;13.390;2024-03-23T08:52:34;100000.86;;;5.41;97.01
56681;BME280;42558;52.388;13.390;2024-03-23T08:55:04;100000.55;;;5.26;96.93
56681;BME280;42558;52.388;13.390;2024-03-23T08:57:33;99997.59;;;5.13;96.37
56681;BME280;42558;52.388;13.390;2024-03-23T09:00:03;99993.55;;;5.04;96.14
56681;BME280;42558;52.388;13.390;2024-03-23T09:02:32;99996.56;;;4.98;95.88
56681;BME280;42558;52.388;13.390;2024-03-23T09:05:01;100007.21;;;4.82;95.25
56681;BME280;42558;52.388;13.390;2024-03-23T09:07:33;100003.95;;;4.71;94.92
56681;BME280;42558;52.388;13.390;2024-03-23T09:10:02;100006.63;;;4.56;94.82
56681;BME280;42558;52.388;13.390;2024-03-23T09:12:31;100012.05;;;4.44;95.32
56681;BME280;42558;52.388;13.390;2024-03-23T09:15:00;100013.56;;;4.48;96.31
56681;BME280;42558;52.388;13.390;2024-03-23T09:17:29;100015.02;;;4.48;96.76
56681;BME280;42558;52.388;13.390;2024-03-23T09:19:57;100012.48;;;4.36;96.60
56681;BME280;42558;52.388;13.390;2024-03-23T09:22:26;100021.91;;;4.25;96.07
56681;BME280;42558;52.388;13.390;2024-03-23T09:24:55;100031.88;;;4.19;95.44
56681;BME280;42558;52.388;13.390;2024-03-23T09:27:24;100028.69;;;4.06;94.92
56681;BME280;42558;52.388;13.390;2024-03-23T09:29:53;100032.09;;;4.06;94.81
56681;BME280;42558;52.388;13.390;2024-03-23T09:32:22;100036.18;;;4.01;95.00
56681;BME280;42558;52.388;13.390;2024-03-23T09:34:51;100033.46;;;3.92;94.14
56681;BME280;42558;52.388;13.390;2024-03-23T09:37:20;100045.98;;;3.88;94.33
56681;BME280;42558;52.388;13.390;2024-03-23T09:39:49;100042.27;;;3.89;94.90
56681;BME280;42558;52.388;13.390;2024-03-23T09:42:17;100051.50;;;3.92;95.71
56681;BME280;42558;52.388;13.390;2024-03-23T09:44:50;100052.25;;;3.89;95.81
56681;BME280;42558;52.388;13.390;2024-03-23T09:47:20;100058.30;;;3.82;94.67
56681;BME280;42558;52.388;13.390;2024-03-23T09:49:49;100066.88;;;3.77;94.70
56681;BME280;42558;52.388;13.390;2024-03-23T09:52:19;100069.06;;;3.83;95.60
56681;BME280;42558;52.388;13.390;2024-03-23T09:54:47;100083.42;;;3.82;95.80
56681;BME280;42558;52.388;13.390;2024-03-23T09:57:17;100089.98;;;3.77;96.31
56681;BME280;42558;52.388;13.390;2024-03-23T09:59:46;100100.52;;;3.74;95.56
56681;BME280;42558;52.388;13.390;2024-03-23T10:02:16;100109.30;;;3.70;95.02
56681;BME280;42558;52.388;13.390;2024-03-23T10:04:46;100120.02;;;3.74;95.45
56681;BME280;42558;52.388;13.390;2024-03-23T10:07:19;100122.02;;;3.80;96.26
56681;BME280;42558;52.388;13.390;2024-03-23T10:09:48;100118.32;;;3.82;96.75
56681;BME280;42558;52.388;13.390;2024-03-23T10:12:21;100112.73;;;3.81;96.73
56681;BME280;42558;52.388;13.390;2024-03-23T10:14:50;100121.66;;;3.85;97.13
56681;BME280;42558;52.388;13.390;2024-03-23T10:17:21;100126.71;;;3.86;97.32
56681;BME280;42558;52.388;13.390;2024-03-23T10:19:56;100128.58;;;3.84;96.72
56681;BME280;42558;52.388;13.390;2024-03-23T10:22:25;100125.83;;;3.76;95.72
56681;BME280;42558;52.388;13.390;2024-03-23T10:25:08;100125.94;;;3.73;95.98
56681;BME280;42558;52.388;13.390;2024-03-23T10:27:37;100131.31;;;3.71;95.89
56681;BME280;42558;52.388;13.390;2024-03-23T10:30:13;100131.92;;;3.66;95.31
56681;BME280;42558;52.388;13.390;2024-03-23T10:32:43;100138.51;;;3.57;95.12
56681;BME280;42558;52.388;13.390;2024-03-23T10:35:20;100146.88;;;3.64;95.97
56681;BME280;42558;52.388;13.390;2024-03-23T10:37:53;100147.20;;;3.66;96.59
56681;BME280;42558;52.388;13.390;2024-03-23T10:40:24;100151.06;;;3.64;96.45
56681;BME280;42558;52.388;13.390;2024-03-23T10:42:58;100150.16;;;3.62;96.32
56681;BME280;42558;52.388;13.390;2024-03-23T10:45:28;100154.67;;;3.61;96.55
56681;BME280;42558;52.388;13.390;2024-03-23T10:47:57;100157.23;;;3.56;96.32
56681;BME280;42558;52.388;13.390;2024-03-23T10:50:26;100157.91;;;3.55;96.11
56681;BME280;42558;52.388;13.390;2024-03-23T10:52:58;100164.55;;;3.61;96.41
56681;BME280;42558;52.388;13.390;2024-03-23T10:55:28;100166.30;;;3.65;96.28
56681;BME280;42558;52.388;13.390;2024-03-23T10:57:57;100167.15;;;3.70;96.66
56681;BME280;42558;52.388;13.390;2024-03-23T11:00:27;100171.05;;;3.73;96.99
56681;BME280;42558;52.388;13.390;2024-03-23T11:02:55;100173.59;;;3.73;96.94
56681;BME280;42558;52.388;13.390;2024-03-23T11:05:27;100171.30;;;3.75;96.39
56681;BME280;42558;52.388;13.390;2024-03-23T11:07:55;100172.81;;;3.81;96.41
56681;BME280;42558;52.388;13.390;2024-03-23T11:10:31;100171.86;;;3.80;95.89
56681;BME280;42558;52.388;13.390;2024-03-23T11:13:23;100169.71;;;3.83;95.45
56681;BME280;42558;52.388;13.390;2024-03-23T11:15:53;100168.48;;;3.93;94.48
56681;BME280;42558;52.388;13.390;2024-03-23T11:18:21;100164.46;;;3.88;92.89
56681;BME280;42558;52.388;13.390;2024-03-23T11:20:50;100163.86;;;4.04;92.91
56681;BME280;42558;52.388;13.390;2024-03-23T11:23:28;100169.11;;;4.10;92.37
56681;BME280;42558;52.388;13.390;2024-03-23T11:25:57;100175.36;;;4.16;93.07
56681;BME280;42558;52.388;13.390;2024-03-23T11:28:26;100173.92;;;4.28;92.80
56681;BME280;42558;52.388;13.390;2024-03-23T11:30:55;100175.52;;;4.40;93.23
56681;BME280;42558;52.388;13.390;2024-03-23T11:33:24;100181.13;;;4.39;93.13
56681;BME280;42558;52.388;13.390;2024-03-23T11:35:53;100181.70;;;4.35;92.13
56681;BME280;42558;52.388;13.390;2024-03-23T11:38:22;100178.68;;;4.42;92.10
56681;BME280;42558;52.388;13.390;2024-03-23T11:40:50;100177.15;;;4.44;92.94
56681;BME280;42558;52.388;13.390;2024-03-23T11:43:20;100180.14;;;4.59;92.53
56681;BME280;42558;52.388;13.390;2024-03-23T11:45:51;100190.30;;;4.66;92.68
56681;BME280;42558;52.388;13.390;2024-03-23T11:48:23;100189.99;;;4.82;94.24
56681;BME280;42558;52.388;13.390;2024-03-23T11:50:57;100189.95;;;4.98;94.16
56681;BME280;42558;52.388;13.390;2024-03-23T11:53:26;100188.55;;;5.02;92.82
56681;BME280;42558;52.388;13.390;2024-03-23T11:55:58;100191.45;;;4.93;91.86
56681;BME280;42558;52.388;13.390;2024-03-23T11:58:27;100193.36;;;5.02;92.28
56681;BME280;42558;52.388;13.390;2024-03-23T12:01:02;100194.89;;;4.83;91.52
56681;BME280;42558;52.388;13.390;2024-03-23T12:03:32;100188.05;;;4.82;93.70
56681;BME280;42558;52.388;13.390;2024-03-23T12:06:02;100188.46;;;5.00;93.53
56681;BME280;42558;52.388;13.390;2024-03-23T12:08:35;100181.33;;;4.89;91.74
56681;BME280;42558;52.388;13.390;2024-03-23T12:11:10;100174.23;;;4.96;91.13
56681;BME280;42558;52.388;13.390;2024-03-23T12:13:42;100175.52;;;5.07;91.54
56681;BME280;42558;52.388;13.390;2024-03-23T12:16:19;100179.56;;;5.07;90.31
56681;BME280;42558;52.388;13.390;2024-03-23T12:18:50;100175.46;;;5.08;91.00
56681;BME280;42558;52.388;13.390;2024-03-23T12:21:22;100178.77;;;5.04;90.79
56681;BME280;42558;52.388;13.390;2024-03-23T12:23:50;100178.04;;;5.09;91.18
56681;BME280;42558;52.388;13.390;2024-03-23T12:26:20;100173.09;;;5.13;90.41
56681;BME280;42558;52.388;13.390;2024-03-23T12:28:51;100176.67;;;5.28;91.86
56681;BME280;42558;52.388;13.390;2024-03-23T12:31:20;100180.96;;;5.34;92.15
56681;BME280;42558;52.388;13.390;2024-03-23T12:33:49;100177.80;;;5.28;91.81
56681;BME280;42558;52.388;13.390;2024-03-23T12:36:18;100181.15;;;5.32;91.44
56681;BME280;42558;52.388;13.390;2024-03-23T12:38:47;100174.73;;;5.34;91.24
56681;BME280;42558;52.388;13.390;2024-03-23T12:41:16;100175.64;;;5.23;91.46
56681;BME280;42558;52.388;13.390;2024-03-23T12:43:45;100174.23;;;5.37;90.63
56681;BME280;42558;52.388;13.390;2024-03-23T12:46:14;100170.04;;;5.44;91.35
56681;BME280;42558;52.388;13.390;2024-03-23T12:48:45;100172.64;;;5.44;92.05
56681;BME280;42558;52.388;13.390;2024-03-23T12:51:14;100175.13;;;5.49;92.22
56681;BME280;42558;52.388;13.390;2024-03-23T12:53:43;100169.12;;;5.44;91.49
56681;BME280;42558;52.388;13.390;2024-03-23T12:56:12;100168.39;;;5.72;92.45
56681;BME280;42558;52.388;13.390;2024-03-23T12:58:41;100164.91;;;5.95;92.89
56681;BME280;42558;52.388;13.390;2024-03-23T13:01:10;100160.48;;;5.82;91.78
56681;BME280;42558;52.388;13.390;2024-03-23T13:03:39;100158.04;;;5.81;91.68
56681;BME280;42558;52.388;13.390;2024-03-23T13:06:09;100157.21;;;5.94;91.43
56681;BME280;42558;52.388;13.390;2024-03-23T13:08:38;100154.20;;;6.02;90.72
56681;BME280;42558;52.388;13.390;2024-03-23T13:11:09;100150.19;;;6.15;90.21
56681;BME280;42558;52.388;13.390;2024-03-23T13:13:40;100146.88;;;6.27;88.53
56681;BME280;42558;52.388;13.390;2024-03-23T13:16:09;100156.08;;;6.43;88.10
56681;BME280;42558;52.388;13.390;2024-03-23T13:18:37;100155.59;;;6.51;84.21
56681;BME280;42558;52.388;13.390;2024-03-23T13:21:06;100153.98;;;6.80;82.96
56681;BME280;42558;52.388;13.390;2024-03-23T13:23:35;100145.50;;;6.99;83.59
56681;BME280;42558;52.388;13.390;2024-03-23T13:26:06;100140.64;;;7.18;83.63
56681;BME280;42558;52.388;13.390;2024-03-23T13:28:34;100140.58;;;7.33;81.76
56681;BME280;42558;52.388;13.390;2024-03-23T13:31:04;100138.14;;;7.54;81.38
56681;BME280;42558;52.388;13.390;2024-03-23T13:33:33;100139.75;;;7.50;79.90
56681;BME280;42558;52.388;13.390;2024-03-23T13:36:02;100141.54;;;7.47;79.22
56681;BME280;42558;52.388;13.390;2024-03-23T13:38:31;100141.23;;;7.78;79.74
56681;BME280;42558;52.388;13.390;2024-03-23T13:41:01;100143.14;;;7.78;80.98
56681;BME280;42558;52.388;13.390;2024-03-23T13:43:30;100143.52;;;7.82;80.04
56681;BME280;42558;52.388;13.390;2024-03-23T13:45:59;100142.04;;;7.69;81.26
56681;BME280;42558;52.388;13.390;2024-03-23T13:48:27;100138.02;;;7.74;82.02
56681;BME280;42558;52.388;13.390;2024-03-23T13:51:05;100137.77;;;7.86;81.77